Latest Weather Observations for Warrnambool

IDV60801

Issued at 4:02 am EST Wednesday 29 April 2015 (issued every 30 minutes, with the page automatically refreshed every 10 minutes)

About weather observations | Map of weather stations | Latest weather observations for VIC | Other Formats
Station Details ID: 090186 Name: WARRNAMBOOL AIRPORT NDB Lat: -38.29 Lon: 142.45 Height: 70.8 m
Data from the previous 72 hours. | See also: Recent months at Warrnambool
Date/Time
EST
Temp
°C
App
Temp
°C
Dew
Point
Rel
Hum
%
Delta-T
°C
Wind Press
QNH
hPa
Press
MSL
hPa
Rain
since 9 am
mm
Dir
 
Spd
km/h
Gust
km/h
Spd
kts
Gust
kts
29/04:00am 10.2 9.1 10.0 99 0.1 WNW 6 9 3 5 1030.8 1030.8 0.2
29/03:30am 10.3 8.7 10.1 99 0.1 WSW 9 11 5 6 1030.6 1030.6 0.2
29/03:00am 9.7 8.5 9.6 99 0.0 NNW 6 6 3 3 1030.8 1030.8 0.2
29/02:47am 9.5 8.2 9.2 98 0.1 NNW 6 7 3 4 1030.8 1030.8 0.0
29/02:30am 9.9 9.9 9.8 99 0.1 CALM 0 7 0 4 1030.9 1030.9 0.0
29/02:15am 10.0 8.9 9.9 99 0.1 NW 6 11 3 6 1031.0 1031.0 0.0
29/02:00am 9.8 8.6 9.5 98 0.1 NE 6 7 3 4 1031.0 1031.0 0.0
29/01:30am 10.1 9.0 9.9 99 0.1 NE 6 7 3 4 1031.1 1031.1 0.0
29/01:00am 10.0 8.7 9.9 99 0.1 NNW 7 7 4 4 1031.2 1031.2 0.0
29/12:30am 10.0 8.9 9.9 99 0.1 NW 6 7 3 4 1031.2 1031.2 0.0
29/12:00am 10.0 10.0 9.9 99 0.1 CALM 0 7 0 4 1031.4 1031.4 0.0
 
Date/Time
EST
Temp
°C
App
Temp
°C
Dew
Point
Rel
Hum
%
Delta-T
°C
Wind Press
QNH
hPa
Press
MSL
hPa
Rain
since 9 am
mm
Dir
 
Spd
km/h
Gust
km/h
Spd
kts
Gust
kts
28/11:30pm 10.1 10.1 9.9 99 0.1 CALM 0 4 0 2 1031.4 1031.4 0.0
28/11:00pm 10.1 9.7 9.9 99 0.1 NW 2 6 1 3 1031.5 1031.5 0.0
28/10:30pm 10.0 8.8 9.7 98 0.2 NW 6 7 3 4 1031.4 1031.4 0.0
28/10:00pm 10.1 9.7 9.6 97 0.2 S 2 6 1 3 1031.3 1031.3 0.0
28/09:30pm 9.4 9.2 8.9 97 0.2 CALM 0 0 0 0 1031.4 1031.4 0.0
28/09:10pm 9.6 9.0 8.8 95 0.4 ENE 2 7 1 4 1031.3 1031.3 0.0
28/09:00pm 10.0 8.6 9.4 96 0.3 E 7 15 4 8 1031.3 1031.3 0.0
28/08:43pm 10.4 7.0 9.3 93 0.5 SE 17 22 9 12 1031.3 1031.3 0.0
28/08:30pm 11.1 7.4 9.4 89 0.9 SSE 19 24 10 13 1031.2 1031.2 0.0
28/08:00pm 10.8 6.4 8.9 88 0.9 S 22 26 12 14 1031.0 1031.0 0.0
28/07:30pm 11.5 7.5 9.1 85 1.2 SSE 20 30 11 16 1030.9 1030.9 0.0
28/07:00pm 11.9 9.5 8.7 81 1.6 SSE 11 15 6 8 1030.7 1030.7 0.0
28/06:30pm 11.9 8.9 9.3 84 1.3 SSE 15 20 8 11 1030.5 1030.4 0.0
28/06:00pm 12.4 10.3 8.1 75 2.1 SE 9 20 5 11 1030.2 1030.1 0.0
28/05:30pm 12.6 10.4 7.9 73 2.3 SSE 9 11 5 6 1030.0 1029.9 0.0
28/05:00pm 12.9 9.9 7.6 70 2.6 SSE 13 17 7 9 1030.0 1029.9 0.0
28/04:30pm 13.1 10.1 7.8 70 2.6 SSE 13 19 7 10 1029.8 1029.7 0.0
28/04:00pm 13.5 9.7 7.5 67 2.9 SSE 17 20 9 11 1029.7 1029.6 0.0
28/03:30pm 13.2 10.9 7.4 68 2.8 SSE 9 11 5 6 1029.6 1029.5 0.0
28/03:00pm 13.4 11.1 7.6 68 2.8 SE 9 13 5 7 1029.5 1029.4 0.0
28/02:30pm 13.1 9.7 7.5 69 2.7 SSE 15 22 8 12 1029.7 1029.6 0.0
28/02:00pm 13.7 9.3 7.2 65 3.2 SSE 20 28 11 15 1029.9 1029.8 0.0
28/01:30pm 14.2 9.6 6.3 59 3.8 SSE 20 24 11 13 1030.0 1029.9 0.0
28/01:00pm 14.4 9.8 6.7 60 3.7 SSE 20 24 11 13 1030.1 1030.0 0.0
28/12:30pm 14.0 9.8 7.5 65 3.2 SSE 19 24 10 13 1030.4 1030.3 0.0
28/12:00pm 12.8 9.5 9.4 80 1.7 SE 17 26 9 14 1030.8 1030.8 0.0
28/11:30am 13.0 9.5 8.7 75 2.2 SSE 17 28 9 15 1030.8 1030.8 0.0
28/11:00am 12.1 8.4 9.3 83 1.4 SE 19 28 10 15 1030.9 1030.9 0.0
28/10:30am 13.3 10.5 9.9 80 1.8 SE 15 26 8 14 1030.7 1030.7 0.0
28/10:00am 13.3 9.4 8.8 74 2.3 S 19 24 10 13 1030.5 1030.4 0.0
28/09:30am 13.5 10.0 8.8 73 2.4 S 17 24 9 13 1030.3 1030.2 0.0
28/09:00am 13.6 9.8 6.0 60 3.6 SSE 15 20 8 11 1030.1 1030.0 0.8
28/08:30am 11.8 9.3 8.3 79 1.7 SSW 11 13 6 7 1030.0 1029.9 0.8
28/08:00am 11.4 7.6 7.7 78 1.8 SSW 17 17 9 9 1029.7 1029.6 0.8
28/07:30am 11.4 7.0 7.3 76 2.0 S 20 24 11 13 1029.5 1029.4 0.8
28/07:00am 10.8 7.4 7.5 80 1.6 S 15 20 8 11 1029.3 1029.2 0.8
28/06:30am 10.9 7.2 7.8 81 1.5 SSW 17 22 9 12 1029.0 1028.9 0.8
28/06:00am 9.2 8.1 8.6 96 0.3 SSW 4 9 2 5 1028.8 1028.7 0.8
28/05:30am 9.1 8.8 8.5 96 0.3 CALM 0 2 0 1 1028.4 1028.3 0.8
28/05:00am 8.7 7.0 7.6 93 0.5 ENE 6 7 3 4 1028.2 1028.1 0.8
28/04:30am 9.4 7.9 8.3 93 0.5 ESE 6 7 3 4 1028.0 1027.9 0.6
28/04:00am 8.8 6.9 7.7 93 0.5 SSE 7 9 4 5 1027.7 1027.6 0.6
28/03:30am 9.1 6.5 7.9 92 0.6 S 11 13 6 7 1027.6 1027.5 0.6
28/03:00am 10.5 7.6 9.6 94 0.4 S 15 20 8 11 1027.7 1027.6 0.6
28/02:30am 8.5 8.1 8.1 97 0.2 CALM 0 7 0 4 1027.5 1027.4 0.2
28/02:00am 9.2 8.9 8.6 96 0.3 CALM 0 6 0 3 1027.5 1027.4 0.2
28/01:30am 9.5 8.9 8.9 96 0.3 W 2 9 1 5 1027.5 1027.4 0.2
28/01:00am 9.6 8.2 9.0 96 0.3 E 6 11 3 6 1027.5 1027.4 0.0
28/12:30am 9.4 7.0 8.6 95 0.4 SW 11 13 6 7 1027.5 1027.4 0.0
28/12:00am 10.4 7.5 9.6 95 0.4 SW 15 17 8 9 1027.5 1027.4 0.0
 
Date/Time
EST
Temp
°C
App
Temp
°C
Dew
Point
Rel
Hum
%
Delta-T
°C
Wind Press
QNH
hPa
Press
MSL
hPa
Rain
since 9 am
mm
Dir
 
Spd
km/h
Gust
km/h
Spd
kts
Gust
kts
27/11:30pm 9.5 6.6 8.1 91 0.7 SSW 13 15 7 8 1027.6 1027.5 0.0
27/11:00pm 9.7 6.8 8.1 90 0.8 SSW 13 17 7 9 1027.6 1027.5 0.0
27/10:30pm 10.8 8.2 9.2 90 0.8 SSW 13 19 7 10 1027.5 1027.4 0.0
27/10:00pm 10.8 7.5 8.2 84 1.3 SSW 15 17 8 9 1027.2 1027.2 0.0
27/09:30pm 11.3 7.3 8.2 81 1.5 SSW 19 24 10 13 1027.1 1027.1 0.0
27/09:00pm 11.1 8.3 8.5 84 1.3 SSW 13 19 7 10 1026.8 1026.8 0.0
27/08:30pm 10.7 7.6 9.0 89 0.8 SSW 15 19 8 10 1026.5 1026.5 0.0
27/08:00pm 9.6 6.6 7.5 87 1.0 SW 13 15 7 8 1026.5 1026.5 0.0
27/07:30pm 10.8 8.9 9.1 89 0.8 SW 9 11 5 6 1026.3 1026.3 0.0
27/07:00pm 11.1 8.4 9.0 87 1.0 WSW 13 19 7 10 1026.1 1026.1 0.0
27/06:30pm 11.1 8.3 8.5 84 1.3 SW 13 17 7 9 1025.8 1025.8 0.0
27/06:00pm 11.1 8.4 8.8 86 1.1 SW 13 15 7 8 1025.6 1025.6 0.0
27/05:30pm 11.6 7.2 8.8 83 1.4 SW 22 28 12 15 1025.4 1025.4 0.0
27/05:00pm 12.0 8.4 8.5 79 1.7 SSW 17 24 9 13 1025.2 1025.2 0.0
27/04:30pm 12.3 7.8 8.4 77 1.9 SSW 22 28 12 15 1025.1 1025.1 0.0
27/04:00pm 13.2 8.4 8.9 75 2.2 SSW 24 30 13 16 1025.0 1025.0 0.0
27/03:30pm 13.4 8.7 9.1 75 2.2 SSW 24 35 13 19 1024.8 1024.8 0.0
27/03:00pm 12.6 7.6 9.6 82 1.5 SSW 26 32 14 17 1024.7 1024.7 0.0
27/02:59pm 12.7 7.9 10.2 85 1.3 SSW 26 32 14 17 1024.7 1024.7 0.0
27/02:40pm 12.3 6.7 11.4 94 0.5 SW 32 41 17 22 1024.8 1024.8 0.0
27/02:30pm 14.0 8.7 9.8 76 2.2 SW 28 37 15 20 1024.5 1024.5 0.0
27/02:00pm 13.7 8.7 9.6 76 2.1 SSW 26 35 14 19 1024.3 1024.3 0.0
27/01:30pm 13.9 8.8 9.3 74 2.4 SSW 26 33 14 18 1024.3 1024.3 0.0
27/01:00pm 12.8 8.2 9.8 82 1.5 SSW 24 33 13 18 1024.5 1024.5 0.0
27/12:30pm 13.6 8.5 9.3 75 2.2 SSW 26 32 14 17 1024.6 1024.6 0.0
27/12:00pm 13.1 8.2 9.9 81 1.6 SSW 26 39 14 21 1024.8 1024.8 0.0
27/11:30am 13.5 8.9 9.6 77 2.0 SSW 24 33 13 18 1024.9 1024.9 0.0
27/11:19am 12.0 8.9 10.2 89 0.9 WSW 17 24 9 13 1025.0 1025.0 0.0
27/11:07am 11.9 7.9 10.5 91 0.7 SW 22 32 12 17 1025.1 1025.1 0.0
27/11:00am 12.2 7.9 10.8 91 0.7 SSW 24 32 13 17 1025.0 1025.0 0.0
27/10:30am 13.9 9.4 10.1 78 2.0 SW 24 32 13 17 1024.8 1024.8 0.0
27/10:00am 12.8 9.3 10.3 85 1.3 SW 19 24 10 13 1024.8 1024.8 0.0
27/09:30am 11.3 6.6 9.2 87 1.1 SW 24 35 13 19 1024.6 1024.6 0.0
27/09:00am 11.3 8.2 10.2 93 0.6 WSW 17 22 9 12 1024.4 1024.4 1.8
27/08:59am 11.2 8.1 10.3 94 0.5 WSW 17 22 9 12 1024.4 1024.4 1.8
27/08:42am 11.5 7.4 10.1 91 0.7 WSW 22 28 12 15 1024.4 1024.4 1.8
27/08:30am 12.1 9.7 10.0 87 1.1 WSW 13 17 7 9 1024.3 1024.3 1.8
27/08:00am 11.1 7.8 9.5 90 0.8 SW 17 28 9 15 1024.0 1024.0 1.8
27/07:30am 10.4 7.2 8.5 88 0.9 SW 15 20 8 11 1023.7 1023.7 1.8
27/07:00am 10.3 6.3 9.1 92 0.6 SSW 20 24 11 13 1023.4 1023.4 1.8
27/06:30am 10.3 7.5 10.0 98 0.2 WSW 15 17 8 9 1023.1 1023.1 1.6
27/06:23am 10.2 7.8 9.9 98 0.2 SW 13 15 7 8 1023.1 1023.1 1.6
27/06:01am 10.3 5.8 10.0 98 0.2 WSW 24 37 13 20 1023.1 1023.1 1.6
27/06:00am 10.3 5.8 10.0 98 0.2 WSW 24 35 13 19 1023.2 1023.2 1.6
27/05:50am 10.2 6.6 10.0 99 0.1 WSW 19 22 10 12 1023.0 1023.0 1.6
27/05:46am 10.2 7.0 10.0 99 0.1 WSW 17 22 9 12 1023.0 1023.0 1.6
27/05:30am 10.6 7.0 10.4 99 0.1 WSW 20 28 11 15 1023.2 1023.2 1.6
27/05:28am 10.6 7.0 10.4 99 0.1 WSW 20 28 11 15 1023.2 1023.2 1.6
27/05:15am 10.6 6.2 10.4 99 0.1 WSW 24 32 13 17 1023.0 1023.0 1.2
27/05:00am 10.4 8.0 9.9 97 0.3 W 13 17 7 9 1022.7 1022.7 1.0
27/04:30am 10.5 6.9 9.7 95 0.4 W 19 28 10 15 1022.5 1022.5 1.0
27/04:00am 10.7 6.8 9.5 92 0.6 WSW 20 26 11 14 1022.4 1022.4 1.0
27/03:30am 10.7 6.7 9.0 89 0.8 WSW 20 26 11 14 1022.4 1022.4 1.0
27/03:00am 10.9 7.1 9.7 92 0.6 SW 20 28 11 15 1022.4 1022.4 1.0
27/02:51am 10.2 6.1 8.8 91 0.7 SW 20 24 11 13 1022.4 1022.4 1.0
27/02:34am 11.0 6.5 10.1 94 0.5 SW 24 33 13 18 1022.4 1022.4 1.0
27/02:30am 11.0 6.8 9.6 91 0.7 WSW 22 30 12 16 1022.4 1022.4 0.8
27/02:00am 10.7 7.2 8.8 88 0.9 WSW 17 20 9 11 1022.4 1022.4 0.4
27/01:30am 10.5 6.5 8.3 86 1.1 WSW 19 24 10 13 1022.4 1022.4 0.2
27/01:00am 9.5 6.5 7.9 90 0.8 WNW 13 15 7 8 1022.4 1022.4 0.2
27/12:30am 10.6 7.2 9.0 90 0.8 WSW 17 22 9 12 1022.4 1022.4 0.2
27/12:00am 10.7 7.9 8.6 87 1.0 W 13 17 7 9 1022.6 1022.6 0.2
 
Date/Time
EST
Temp
°C
App
Temp
°C
Dew
Point
Rel
Hum
%
Delta-T
°C
Wind Press
QNH
hPa
Press
MSL
hPa
Rain
since 9 am
mm
Dir
 
Spd
km/h
Gust
km/h
Spd
kts
Gust
kts
26/11:30pm 10.8 6.9 8.7 87 1.0 WSW 19 22 10 12 1022.5 1022.5 0.2
26/11:00pm 10.8 6.5 8.0 83 1.4 WSW 20 24 11 13 1022.6 1022.6 0.2
26/10:30pm 11.2 6.6 8.2 82 1.5 SW 22 30 12 16 1022.7 1022.7 0.2
26/10:00pm 10.8 7.0 7.7 81 1.5 WSW 17 24 9 13 1022.7 1022.7 0.2
26/09:30pm 10.5 6.6 7.2 80 1.6 WSW 17 20 9 11 1022.6 1022.6 0.2
26/09:00pm 10.8 6.7 7.7 81 1.5 WSW 19 24 10 13 1022.6 1022.6 0.2
26/08:30pm 11.5 6.8 9.1 85 1.2 SW 24 35 13 19 1022.4 1022.4 0.2
26/08:00pm 11.1 7.5 8.5 84 1.3 WSW 17 20 9 11 1022.3 1022.3 0.2
26/07:30pm 10.9 4.9 8.5 85 1.2 WSW 30 37 16 20 1022.3 1022.3 0.2
26/07:00pm 11.3 7.0 9.4 88 1.0 WSW 22 32 12 17 1022.3 1022.3 0.2
26/06:30pm 11.8 7.7 8.8 82 1.5 WSW 20 30 11 16 1022.0 1022.0 0.2
26/06:00pm 12.0 7.3 7.9 76 2.0 WSW 22 28 12 15 1021.7 1021.7 0.2
26/05:30pm 11.9 7.4 8.4 79 1.7 WSW 22 30 12 16 1021.5 1021.5 0.2
26/05:00pm 12.6 7.3 8.5 76 2.0 SW 26 35 14 19 1021.4 1021.4 0.2
26/04:30pm 12.7 7.3 8.0 73 2.3 SW 26 35 14 19 1021.2 1021.2 0.2
26/04:00pm 12.9 7.0 7.4 69 2.7 SW 28 37 15 20 1021.1 1021.1 0.2
26/03:30pm 13.2 6.5 7.2 67 2.9 SW 32 41 17 22 1021.0 1021.0 0.2
26/03:00pm 13.3 6.8 6.6 64 3.2 SW 30 39 16 21 1020.9 1020.9 0.2
26/02:30pm 12.9 6.4 8.2 73 2.3 SW 32 37 17 20 1020.9 1020.9 0.2
26/02:00pm 13.1 7.1 6.9 66 3.0 SW 28 39 15 21 1020.8 1020.8 0.2
26/01:30pm 13.3 6.3 6.9 65 3.1 SW 33 43 18 23 1020.7 1020.7 0.2
26/01:00pm 13.1 5.5 5.8 61 3.4 SW 35 43 19 23 1020.7 1020.7 0.2
26/12:30pm 12.9 6.4 6.7 66 3.0 SW 30 39 16 21 1020.8 1020.8 0.2
26/12:00pm 11.5 5.6 9.2 86 1.2 SW 30 39 16 21 1021.1 1021.1 0.2
26/11:30am 12.8 6.6 7.9 72 2.4 SW 30 37 16 20 1021.1 1021.1 0.2
26/11:00am 12.2 5.4 7.7 74 2.2 SW 33 43 18 23 1021.1 1021.1 0.2
26/10:30am 12.2 6.7 9.2 82 1.5 SSW 28 35 15 19 1021.1 1021.1 0.2
26/10:06am 12.0 6.8 10.1 88 1.0 SSW 28 46 15 25 1021.0 1021.0 0.2
26/10:00am 11.3 6.8 9.9 91 0.7 SSW 24 33 13 18 1021.0 1021.0 0.2
26/09:33am 11.4 7.4 10.5 94 0.5 SW 22 30 12 16 1020.9 1020.9 0.2
26/09:30am 12.1 8.4 11.6 97 0.3 SSW 22 30 12 16 1020.9 1020.9 0.2
26/09:11am 11.3 6.6 10.5 95 0.4 SSW 26 39 14 21 1020.9 1020.9 0.2
26/09:00am 11.3 7.2 10.2 93 0.6 SSW 22 26 12 14 1020.7 1020.7 3.4
26/08:30am 11.7 7.3 9.1 84 1.3 SW 22 30 12 16 1020.4 1020.4 3.4
26/08:00am 10.5 6.6 8.8 89 0.8 SW 19 24 10 13 1020.1 1020.1 3.4
26/07:30am 10.1 4.4 8.5 90 0.8 SSW 28 35 15 19 1019.7 1019.7 3.4
26/07:00am 9.6 6.2 9.0 96 0.3 SW 17 22 9 12 1019.3 1019.3 3.4
26/06:56am 9.8 6.0 9.2 96 0.3 SW 19 22 10 12 1019.3 1019.3 3.4
26/06:42am 10.0 4.9 9.2 95 0.4 SW 26 35 14 19 1019.2 1019.2 3.4
26/06:41am 10.1 4.6 9.3 95 0.4 SW 28 35 15 19 1019.2 1019.2 3.4
26/06:30am 10.2 5.9 9.4 95 0.4 SW 22 32 12 17 1019.1 1019.1 3.4
26/06:22am 10.4 6.5 9.5 94 0.5 SSW 20 26 11 14 1019.0 1019.0 3.4
26/06:00am 10.3 5.1 8.7 90 0.8 SSW 26 35 14 19 1018.9 1018.9 3.4
26/05:30am 9.8 5.1 7.7 87 1.0 SW 22 28 12 15 1018.6 1018.6 3.4
26/05:00am 9.9 5.4 8.7 92 0.6 SW 22 32 12 17 1018.6 1018.6 3.2
26/04:35am 10.0 4.8 8.8 92 0.6 SSW 26 35 14 19 1018.5 1018.4 3.2
26/04:30am 9.8 5.0 8.7 93 0.5 S 24 30 13 16 1018.4 1018.3 3.2
26/04:16am 10.1 3.9 9.5 96 0.3 SW 32 41 17 22 1018.4 1018.3 3.2

Other Formats:

Comma delimited format used in spreadsheet applications
http://www.bom.gov.au/fwo/IDV60801/IDV60801.94837.axf

JavaScript Object Notation format (JSON) in row-major order
http://www.bom.gov.au/fwo/IDV60801/IDV60801.94837.json